createdAt,value
2023-05-14T00:00:08.439Z,9.30
2023-05-14T00:02:36.401Z,9.30
2023-05-14T00:05:04.583Z,9.20
2023-05-14T00:07:32.452Z,9.20
2023-05-14T00:10:00.787Z,9.20
2023-05-14T00:12:30.001Z,8.70
2023-05-14T00:14:59.264Z,9.20
2023-05-14T00:17:27.233Z,9.10
2023-05-14T00:19:55.142Z,9.10
2023-05-14T00:22:23.038Z,9.10
2023-05-14T00:24:50.891Z,9.10
2023-05-14T00:27:18.738Z,9.20
2023-05-14T00:29:46.665Z,8.80
2023-05-14T00:32:15.983Z,9.10
2023-05-14T00:34:43.834Z,9.10
2023-05-14T00:37:11.703Z,9.10
2023-05-14T00:39:39.656Z,8.70
2023-05-14T00:42:08.038Z,8.90
2023-05-14T00:44:36.465Z,9.00
2023-05-14T00:47:05.158Z,9.50
2023-05-14T00:49:35.077Z,8.90
2023-05-14T00:52:03.517Z,8.90
2023-05-14T00:54:31.982Z,8.70
2023-05-14T00:57:00.893Z,8.80
2023-05-14T00:59:28.834Z,10.50
2023-05-14T01:01:56.823Z,8.70
2023-05-14T01:04:25.097Z,8.70
2023-05-14T01:07:08.752Z,8.60
2023-05-14T01:09:43.533Z,8.60
2023-05-14T01:12:20.221Z,9.80
2023-05-14T01:14:56.187Z,10.30
2023-05-14T01:17:27.759Z,8.30
2023-05-14T01:19:57.739Z,8.60
2023-05-14T01:22:26.955Z,8.50
2023-05-14T01:24:54.804Z,8.70
2023-05-14T01:27:30.764Z,8.50
2023-05-14T01:30:09.763Z,8.50
2023-05-14T01:32:40.384Z,8.50
2023-05-14T01:35:10.588Z,8.40
2023-05-14T01:37:41.791Z,8.50
2023-05-14T01:40:11.895Z,10.20
2023-05-14T01:42:39.881Z,8.40
2023-05-14T01:45:08.695Z,8.50
2023-05-14T01:47:36.605Z,8.30
2023-05-14T01:50:04.700Z,8.10
2023-05-14T01:52:32.578Z,8.20
2023-05-14T01:55:02.149Z,8.20
2023-05-14T01:57:30.027Z,8.50
2023-05-14T01:59:57.914Z,8.10
2023-05-14T02:02:25.968Z,8.20
2023-05-14T02:04:54.129Z,8.10
2023-05-14T02:07:21.964Z,8.10
2023-05-14T02:09:49.825Z,8.10
2023-05-14T02:12:19.060Z,8.00
2023-05-14T02:14:46.922Z,8.00
2023-05-14T02:17:17.562Z,8.00
2023-05-14T02:19:46.199Z,7.90
2023-05-14T02:22:14.214Z,7.90
2023-05-14T02:24:42.544Z,7.80
2023-05-14T02:27:12.632Z,9.90
2023-05-14T02:29:41.878Z,7.70
2023-05-14T02:32:10.023Z,7.80
2023-05-14T02:34:38.613Z,7.70
2023-05-14T02:37:06.778Z,7.80
2023-05-14T02:39:34.645Z,7.50
2023-05-14T02:42:02.495Z,7.40
2023-05-14T02:44:31.734Z,7.40
2023-05-14T02:47:01.111Z,7.20
2023-05-14T02:49:29.030Z,7.30
2023-05-14T02:56:53.736Z,7.20
2023-05-14T02:59:21.672Z,7.20
2023-05-14T03:01:49.964Z,7.20
2023-05-14T03:04:19.656Z,7.70
2023-05-14T03:06:47.522Z,7.20
2023-05-14T03:09:15.436Z,7.10
2023-05-14T03:24:08.498Z,6.90
2023-05-14T03:26:37.352Z,6.80
2023-05-14T03:29:05.298Z,6.90
2023-05-14T03:31:33.153Z,7.40
2023-05-14T03:34:01.009Z,6.80
2023-05-14T03:36:28.883Z,6.80
2023-05-14T03:38:58.082Z,7.00
2023-05-14T03:41:26.149Z,6.70
2023-05-14T03:43:54.000Z,7.50
2023-05-14T03:46:21.922Z,7.60
2023-05-14T03:48:49.811Z,6.80
2023-05-14T03:51:17.688Z,6.80
2023-05-14T03:53:45.784Z,7.20
2023-05-14T03:56:15.047Z,6.80
2023-05-14T03:58:42.935Z,6.70
2023-05-14T04:01:10.856Z,6.80
2023-05-14T04:03:38.778Z,7.10
2023-05-14T04:06:07.048Z,7.50
2023-05-14T04:08:34.950Z,7.00
2023-05-14T04:11:02.850Z,7.00
2023-05-14T04:13:32.156Z,7.00
2023-05-14T04:16:00.419Z,7.30
2023-05-14T04:18:28.414Z,7.20
2023-05-14T04:20:56.334Z,7.20
2023-05-14T04:23:24.189Z,7.60
2023-05-14T04:25:52.017Z,7.50
2023-05-14T04:28:19.909Z,7.60
2023-05-14T04:30:49.623Z,7.60
2023-05-14T04:33:17.491Z,7.70
2023-05-14T04:35:46.109Z,7.80
2023-05-14T04:38:14.456Z,8.00
2023-05-14T04:40:42.753Z,8.00
2023-05-14T04:43:10.695Z,8.30
2023-05-14T04:45:38.614Z,8.40
2023-05-14T04:48:08.964Z,8.60
2023-05-14T04:50:36.900Z,8.80
2023-05-14T04:53:04.759Z,9.00
2023-05-14T04:55:33.088Z,9.50
2023-05-14T04:58:01.007Z,10.70
2023-05-14T05:00:29.589Z,10.40
2023-05-14T05:02:57.516Z,10.70
2023-05-14T05:05:26.838Z,12.60
2023-05-14T05:07:55.064Z,11.10
2023-05-14T05:10:23.296Z,11.30
2023-05-14T05:12:51.322Z,11.60
2023-05-14T05:15:19.381Z,12.80
2023-05-14T05:17:47.222Z,11.30
2023-05-14T05:20:15.214Z,12.90
2023-05-14T05:25:12.895Z,13.90
2023-05-14T05:27:40.795Z,15.10
2023-05-14T05:30:09.769Z,15.30
2023-05-14T05:32:37.786Z,15.40
2023-05-14T05:35:06.516Z,16.00
2023-05-14T05:37:34.348Z,16.20
2023-05-14T05:40:05.594Z,16.70
2023-05-14T05:42:33.446Z,17.10
2023-05-14T05:45:01.292Z,17.20
2023-05-14T05:47:30.092Z,17.30
2023-05-14T05:49:57.965Z,17.30
2023-05-14T05:52:25.915Z,17.50
2023-05-14T05:54:53.801Z,17.50
2023-05-14T05:57:25.680Z,17.70
2023-05-14T05:59:54.243Z,18.20
2023-05-14T06:02:22.839Z,18.60
2023-05-14T06:04:50.765Z,18.50
2023-05-14T06:07:18.599Z,19.00
2023-05-14T06:09:46.435Z,18.80
2023-05-14T06:12:14.262Z,18.70
2023-05-14T06:14:43.465Z,18.90
2023-05-14T06:17:11.863Z,19.20
2023-05-14T06:19:39.748Z,19.30
2023-05-14T06:22:07.617Z,19.50
2023-05-14T06:24:35.468Z,19.40
2023-05-14T06:27:03.354Z,19.70
2023-05-14T06:29:31.190Z,19.70
2023-05-14T06:32:03.063Z,19.70
2023-05-14T06:34:31.210Z,19.90
2023-05-14T06:36:59.141Z,20.20
2023-05-14T06:39:27.010Z,20.40
2023-05-14T06:41:54.873Z,20.70
2023-05-14T06:44:22.791Z,20.80
2023-05-14T06:46:50.661Z,21.10
2023-05-14T06:49:20.026Z,21.20
2023-05-14T06:51:48.031Z,21.30
2023-05-14T06:54:15.875Z,21.30
2023-05-14T06:56:43.694Z,21.40
2023-05-14T06:59:11.525Z,21.40
2023-05-14T07:01:39.411Z,21.30
2023-05-14T07:04:07.394Z,21.70
2023-05-14T07:06:36.707Z,22.10
2023-05-14T07:09:04.749Z,22.20
2023-05-14T07:11:32.601Z,21.90
2023-05-14T07:14:00.504Z,22.10
2023-05-14T07:16:28.473Z,21.80
2023-05-14T07:18:56.420Z,21.90
2023-05-14T07:21:24.304Z,22.10
2023-05-14T07:23:53.471Z,22.10
2023-05-14T07:26:21.382Z,22.50
2023-05-14T07:28:49.203Z,22.30
2023-05-14T07:31:17.097Z,22.40
2023-05-14T07:33:44.988Z,22.30
2023-05-14T07:36:12.999Z,22.70
2023-05-14T07:38:40.915Z,22.70
2023-05-14T07:41:11.429Z,22.50
2023-05-14T07:43:40.433Z,22.70
2023-05-14T07:46:08.302Z,23.20
2023-05-14T07:48:36.168Z,23.50
2023-05-14T07:51:04.052Z,23.50
2023-05-14T07:53:31.926Z,23.60
2023-05-14T07:56:00.002Z,23.70
2023-05-14T07:58:29.756Z,23.80
2023-05-14T08:00:57.692Z,23.50
2023-05-14T08:03:25.697Z,23.10
2023-05-14T08:05:53.750Z,22.80
2023-05-14T08:08:21.627Z,22.60
2023-05-14T08:10:49.560Z,22.60
2023-05-14T08:13:17.481Z,22.80
2023-05-14T08:15:46.676Z,22.30
2023-05-14T08:18:14.574Z,22.10
2023-05-14T08:20:42.566Z,22.10
2023-05-14T08:23:10.449Z,22.40
2023-05-14T08:25:38.277Z,22.20
2023-05-14T08:28:06.361Z,22.30
2023-05-14T08:30:34.435Z,22.60
2023-05-14T08:33:03.794Z,22.80
2023-05-14T08:35:31.685Z,22.50
2023-05-14T08:37:59.518Z,22.60
2023-05-14T08:40:28.029Z,22.10
2023-05-14T08:42:57.899Z,22.10
2023-05-14T08:45:31.427Z,22.30
2023-05-14T08:48:00.382Z,22.80
2023-05-14T08:50:31.145Z,22.80
2023-05-14T08:52:59.198Z,22.80
2023-05-14T08:55:29.076Z,23.00
2023-05-14T08:57:57.128Z,23.20
2023-05-14T09:00:26.541Z,23.10
2023-05-14T09:02:55.287Z,22.90
2023-05-14T09:05:24.449Z,22.90
2023-05-14T09:07:53.740Z,22.90
2023-05-14T09:10:22.282Z,22.60
2023-05-14T09:12:51.523Z,22.50
2023-05-14T09:15:19.593Z,22.80
2023-05-14T09:17:48.807Z,23.10
2023-05-14T09:20:17.720Z,23.60
2023-05-14T09:22:45.605Z,23.60
2023-05-14T09:25:14.860Z,23.70
2023-05-14T09:27:42.736Z,23.10
2023-05-14T09:30:12.364Z,23.20
2023-05-14T09:32:43.772Z,23.40
2023-05-14T09:35:17.620Z,23.40
2023-05-14T09:37:47.278Z,23.80
2023-05-14T09:40:18.250Z,23.90
2023-05-14T09:42:46.246Z,24.30
2023-05-14T09:45:14.391Z,24.30
2023-05-14T09:47:42.503Z,24.50
2023-05-14T09:50:10.742Z,24.70
2023-05-14T09:52:39.936Z,24.70
2023-05-14T09:55:08.940Z,24.70
2023-05-14T09:57:38.144Z,24.70
2023-05-14T10:00:08.760Z,24.20
2023-05-14T10:02:38.861Z,23.70
2023-05-14T10:05:07.930Z,23.60
2023-05-14T10:07:41.580Z,23.60
2023-05-14T10:10:14.797Z,23.70
2023-05-14T10:12:47.341Z,23.90
2023-05-14T10:15:20.696Z,24.20
2023-05-14T10:17:52.550Z,24.40
2023-05-14T10:20:21.348Z,24.70
2023-05-14T10:22:49.312Z,24.70
2023-05-14T10:25:17.661Z,24.30
2023-05-14T10:27:48.513Z,24.30
2023-05-14T10:30:16.509Z,24.10
2023-05-14T10:32:45.042Z,23.80
2023-05-14T10:35:25.242Z,24.20
2023-05-14T10:37:53.125Z,24.30
2023-05-14T10:40:24.650Z,23.90
2023-05-14T10:42:55.652Z,23.90
2023-05-14T10:45:25.121Z,23.90
2023-05-14T10:47:53.058Z,24.20
2023-05-14T10:50:23.712Z,24.40
2023-05-14T10:52:53.130Z,24.30
2023-05-14T10:55:22.905Z,24.10
2023-05-14T10:57:50.810Z,23.90
2023-05-14T11:00:20.597Z,24.10
2023-05-14T11:02:48.549Z,23.60
2023-05-14T11:05:17.929Z,23.90
2023-05-14T11:07:47.552Z,24.00
2023-05-14T11:10:16.899Z,24.10
2023-05-14T11:12:46.484Z,24.10
2023-05-14T11:15:16.767Z,23.80
2023-05-14T11:17:47.299Z,23.90
2023-05-14T11:20:16.660Z,24.10
2023-05-14T11:22:45.784Z,24.40
2023-05-14T11:25:15.131Z,24.50
2023-05-14T11:27:44.648Z,24.30
2023-05-14T11:30:16.583Z,23.90
2023-05-14T11:32:48.343Z,23.70
2023-05-14T11:35:16.922Z,23.90
2023-05-14T11:37:45.164Z,23.90
2023-05-14T11:40:17.405Z,24.00
2023-05-14T11:42:45.750Z,24.10
2023-05-14T11:45:14.109Z,24.20
2023-05-14T11:47:43.009Z,24.10
2023-05-14T11:50:12.583Z,24.10
2023-05-14T11:52:43.240Z,24.40
2023-05-14T11:55:12.941Z,24.50
2023-05-14T11:57:41.392Z,24.60
2023-05-14T12:00:13.411Z,24.80
2023-05-14T12:02:41.690Z,25.10
2023-05-14T12:05:13.648Z,25.10
2023-05-14T12:07:46.130Z,25.00
2023-05-14T12:10:14.094Z,24.70
2023-05-14T12:12:41.971Z,24.30
2023-05-14T12:15:13.760Z,24.00
2023-05-14T12:17:42.016Z,24.10
2023-05-14T12:20:12.422Z,24.10
2023-05-14T12:22:42.578Z,24.20
2023-05-14T12:25:14.162Z,24.30
2023-05-14T12:27:42.467Z,24.30
2023-05-14T12:30:21.277Z,24.30
2023-05-14T12:32:51.746Z,24.30
2023-05-14T12:35:20.167Z,24.00
2023-05-14T12:37:49.347Z,24.00
2023-05-14T12:40:17.243Z,24.00
2023-05-14T12:42:45.079Z,24.10
2023-05-14T12:45:13.278Z,24.00
2023-05-14T12:47:41.257Z,24.10
2023-05-14T12:50:09.822Z,24.10
2023-05-14T12:52:39.735Z,24.00
2023-05-14T12:55:10.272Z,23.90
2023-05-14T12:57:38.873Z,24.10
2023-05-14T13:00:12.881Z,24.40
2023-05-14T13:02:43.682Z,24.70
2023-05-14T13:05:12.597Z,24.70
2023-05-14T13:07:40.790Z,24.80
2023-05-14T13:10:11.402Z,24.80
2023-05-14T13:12:39.622Z,24.70
2023-05-14T13:15:08.534Z,24.70
2023-05-14T13:17:37.209Z,24.80
2023-05-14T13:20:05.962Z,25.00
2023-05-14T13:22:33.829Z,25.20
2023-05-14T13:25:01.670Z,25.20
2023-05-14T13:27:31.307Z,25.30
2023-05-14T13:29:59.394Z,25.20
2023-05-14T13:32:27.284Z,25.10
2023-05-14T13:34:55.137Z,25.10
2023-05-14T13:37:23.151Z,25.10
2023-05-14T13:39:51.542Z,24.90
2023-05-14T13:42:19.506Z,24.40
2023-05-14T13:44:48.804Z,24.50
2023-05-14T13:47:16.633Z,24.60
2023-05-14T13:49:44.461Z,24.60
2023-05-14T13:52:12.325Z,24.70
2023-05-14T13:54:40.195Z,24.80
2023-05-14T13:57:08.031Z,24.80
2023-05-14T13:59:35.910Z,24.80
2023-05-14T14:02:05.872Z,24.60
2023-05-14T14:04:33.701Z,24.40
2023-05-14T14:07:01.578Z,24.60
2023-05-14T14:09:29.433Z,24.40
2023-05-14T14:11:57.328Z,24.40
2023-05-14T14:14:26.260Z,24.60
2023-05-14T14:16:54.119Z,24.70
2023-05-14T14:19:26.164Z,24.80
2023-05-14T14:21:54.293Z,24.90
2023-05-14T14:24:22.186Z,24.50
2023-05-14T14:26:50.151Z,24.20
2023-05-14T14:29:18.235Z,23.80
2023-05-14T14:31:46.135Z,23.60
2023-05-14T14:34:14.051Z,23.40
2023-05-14T14:36:43.279Z,23.00
2023-05-14T14:39:11.184Z,22.90
2023-05-14T14:41:39.176Z,22.80
2023-05-14T14:44:07.257Z,22.70
2023-05-14T14:46:35.390Z,22.40
2023-05-14T14:49:03.350Z,22.40
2023-05-14T14:51:31.315Z,22.30
2023-05-14T14:54:00.490Z,22.00
2023-05-14T14:56:28.634Z,21.90
2023-05-14T14:58:56.469Z,21.80
2023-05-14T15:01:24.502Z,21.60
2023-05-14T15:03:52.547Z,21.50
2023-05-14T15:06:20.480Z,21.90
2023-05-14T15:08:48.284Z,21.50
2023-05-14T15:11:17.514Z,21.80
2023-05-14T15:13:45.469Z,21.60
2023-05-14T15:16:13.587Z,21.80
2023-05-14T15:18:41.621Z,22.10
2023-05-14T15:21:09.504Z,22.40
2023-05-14T15:23:37.547Z,22.60
2023-05-14T15:26:05.850Z,23.10
2023-05-14T15:28:35.081Z,23.00
2023-05-14T15:31:03.293Z,23.10
2023-05-14T15:33:31.278Z,23.10
2023-05-14T15:35:59.109Z,23.30
2023-05-14T15:38:26.983Z,23.10
2023-05-14T15:40:54.850Z,23.20
2023-05-14T15:43:22.700Z,22.90
2023-05-14T15:45:51.912Z,22.80
2023-05-14T15:48:19.746Z,22.80
2023-05-14T15:50:49.543Z,22.70
2023-05-14T15:53:17.650Z,22.70
2023-05-14T15:55:46.039Z,22.60
2023-05-14T15:58:13.901Z,22.40
2023-05-14T16:00:41.830Z,22.30
2023-05-14T16:03:12.258Z,22.00
2023-05-14T16:05:40.256Z,21.90
2023-05-14T16:08:08.395Z,21.70
2023-05-14T16:10:36.313Z,21.30
2023-05-14T16:13:04.259Z,21.00
2023-05-14T16:15:32.149Z,20.90
2023-05-14T16:18:01.310Z,20.90
2023-05-14T16:20:30.590Z,20.70
2023-05-14T16:22:58.463Z,20.70
2023-05-14T16:25:26.370Z,20.50
2023-05-14T16:27:54.228Z,20.40
2023-05-14T16:30:22.219Z,20.70
2023-05-14T16:32:50.278Z,20.80
2023-05-14T16:35:18.215Z,20.40
2023-05-14T16:37:47.515Z,20.80
2023-05-14T16:40:16.093Z,20.90
2023-05-14T16:42:44.012Z,20.40
2023-05-14T16:45:12.671Z,20.70
2023-05-14T16:47:40.620Z,20.40
2023-05-14T16:50:09.207Z,20.40
2023-05-14T16:52:37.042Z,20.30
2023-05-14T16:55:07.243Z,20.30
2023-05-14T16:57:35.249Z,20.20
2023-05-14T17:00:06.012Z,20.20
2023-05-14T17:02:34.231Z,20.50
2023-05-14T17:05:02.193Z,20.20
2023-05-14T17:07:31.110Z,20.10
2023-05-14T17:10:00.000Z,20.10
2023-05-14T17:12:29.271Z,20.20
2023-05-14T17:14:57.110Z,20.20
2023-05-14T17:17:25.042Z,20.40
2023-05-14T17:19:52.887Z,20.00
2023-05-14T17:22:20.734Z,20.20
2023-05-14T17:24:48.563Z,20.30
2023-05-14T17:27:16.845Z,20.30
2023-05-14T17:29:46.136Z,20.00
2023-05-14T17:32:14.260Z,20.20
2023-05-14T17:34:42.227Z,20.00
2023-05-14T17:37:10.188Z,19.80
2023-05-14T17:39:38.050Z,19.70
2023-05-14T17:42:06.942Z,19.70
2023-05-14T17:44:34.770Z,19.80
2023-05-14T17:47:04.619Z,19.70
2023-05-14T17:49:32.592Z,19.60
2023-05-14T17:52:00.532Z,19.80
2023-05-14T17:54:28.418Z,19.90
2023-05-14T17:56:56.498Z,19.40
2023-05-14T17:59:24.567Z,19.30
2023-05-14T18:01:52.478Z,19.20
2023-05-14T18:04:21.773Z,19.50
2023-05-14T18:06:49.730Z,19.10
2023-05-14T18:09:17.614Z,18.90
2023-05-14T18:11:45.988Z,18.90
2023-05-14T18:14:14.053Z,18.60
2023-05-14T18:16:41.996Z,18.60
2023-05-14T18:19:10.005Z,18.60
2023-05-14T18:21:39.565Z,18.80
2023-05-14T18:24:08.179Z,18.50
2023-05-14T18:26:36.924Z,18.20
2023-05-14T18:29:04.830Z,18.10
2023-05-14T18:31:32.753Z,18.40
2023-05-14T18:34:00.750Z,18.10
2023-05-14T18:36:28.682Z,17.80
2023-05-14T18:38:57.844Z,18.00
2023-05-14T18:41:25.731Z,18.00
2023-05-14T18:43:53.590Z,17.40
2023-05-14T18:46:21.705Z,17.80
2023-05-14T18:48:49.833Z,17.10
2023-05-14T18:51:17.741Z,17.50
2023-05-14T18:53:45.583Z,17.10
2023-05-14T18:56:14.875Z,17.20
2023-05-14T18:58:42.729Z,16.70
2023-05-14T19:01:10.643Z,17.00
2023-05-14T19:03:38.762Z,16.80
2023-05-14T19:06:06.777Z,16.60
2023-05-14T19:08:34.647Z,16.30
2023-05-14T19:11:03.122Z,16.40
2023-05-14T19:13:32.329Z,16.30
2023-05-14T19:16:00.341Z,16.10
2023-05-14T19:18:28.453Z,16.00
2023-05-14T19:20:57.181Z,16.00
2023-05-14T19:23:25.036Z,15.50
2023-05-14T19:25:52.906Z,15.40
2023-05-14T19:28:21.247Z,15.40
2023-05-14T19:30:51.078Z,15.30
2023-05-14T19:33:18.948Z,15.10
2023-05-14T19:35:47.242Z,15.00
2023-05-14T19:38:15.120Z,14.90
2023-05-14T19:40:44.400Z,14.90
2023-05-14T19:43:12.907Z,14.90
2023-05-14T19:45:42.526Z,14.50
2023-05-14T19:48:12.467Z,14.40
2023-05-14T19:50:41.416Z,14.10
2023-05-14T19:53:09.259Z,14.20
2023-05-14T19:55:37.162Z,14.10
2023-05-14T19:58:05.161Z,14.10
2023-05-14T20:00:33.021Z,13.90
2023-05-14T20:03:00.900Z,14.00
2023-05-14T20:05:30.212Z,13.90
2023-05-14T20:07:58.056Z,13.80
2023-05-14T20:10:26.068Z,14.10
2023-05-14T20:12:54.081Z,14.10
2023-05-14T20:15:21.932Z,13.80
2023-05-14T20:17:49.975Z,13.60
2023-05-14T20:20:18.003Z,13.60
2023-05-14T20:22:47.218Z,13.50
2023-05-14T20:25:15.541Z,13.60
2023-05-14T20:27:43.666Z,13.50
2023-05-14T20:30:11.924Z,13.70
2023-05-14T20:32:39.786Z,13.20
2023-05-14T20:35:08.539Z,13.20
2023-05-14T20:37:36.404Z,13.10
2023-05-14T20:40:06.853Z,13.20
2023-05-14T20:42:36.289Z,13.10
2023-05-14T20:45:04.671Z,13.40
2023-05-14T20:47:34.104Z,12.90
2023-05-14T20:50:02.374Z,13.00
2023-05-14T20:52:30.408Z,12.90
2023-05-14T20:55:00.751Z,12.90
2023-05-14T20:57:31.130Z,12.70
2023-05-14T20:59:59.203Z,12.60
2023-05-14T21:02:27.325Z,12.60
2023-05-14T21:04:55.463Z,12.60
2023-05-14T21:07:23.373Z,12.60
2023-05-14T21:09:52.540Z,12.50
2023-05-14T21:12:20.634Z,12.60
2023-05-14T21:14:49.825Z,12.70
2023-05-14T21:17:17.697Z,12.40
2023-05-14T21:19:45.594Z,12.40
2023-05-14T21:22:14.346Z,12.10
2023-05-14T21:24:42.397Z,12.10
2023-05-14T21:27:10.257Z,12.00
2023-05-14T21:29:38.504Z,11.90
2023-05-14T21:32:08.525Z,11.80
2023-05-14T21:34:36.420Z,11.90
2023-05-14T21:37:04.485Z,12.00
2023-05-14T21:39:32.362Z,11.90
2023-05-14T21:42:00.176Z,11.90
2023-05-14T21:44:28.043Z,11.70
2023-05-14T21:46:56.202Z,11.70
2023-05-14T21:49:25.529Z,11.70
2023-05-14T21:51:54.471Z,11.90
2023-05-14T21:54:22.368Z,11.60
2023-05-14T21:56:50.249Z,11.60
2023-05-14T21:59:18.097Z,11.50
2023-05-14T22:02:05.340Z,11.50
2023-05-14T22:04:36.155Z,11.40
2023-05-14T22:07:04.344Z,11.50
2023-05-14T22:09:32.260Z,11.40
2023-05-14T22:12:00.180Z,11.40
2023-05-14T22:14:28.037Z,11.50
2023-05-14T22:16:56.079Z,11.40
2023-05-14T22:19:23.954Z,11.30
2023-05-14T22:21:53.125Z,11.60
2023-05-14T22:24:20.976Z,11.30
2023-05-14T22:26:48.840Z,11.30
2023-05-14T22:29:16.647Z,11.20
2023-05-14T22:31:44.521Z,11.20
2023-05-14T22:34:12.400Z,11.20
2023-05-14T22:36:40.321Z,11.20
2023-05-14T22:39:11.303Z,11.10
2023-05-14T22:41:40.542Z,11.00
2023-05-14T22:44:08.359Z,11.00
2023-05-14T22:46:36.509Z,11.00
2023-05-14T22:49:04.525Z,10.90
2023-05-14T22:51:32.679Z,10.90
2023-05-14T22:54:00.532Z,10.90
2023-05-14T22:56:29.872Z,10.90
2023-05-14T22:58:58.041Z,10.70
2023-05-14T23:01:26.019Z,10.70
2023-05-14T23:03:53.890Z,10.90
2023-05-14T23:06:21.859Z,10.70
2023-05-14T23:08:49.851Z,10.70
2023-05-14T23:11:17.877Z,10.60
2023-05-14T23:13:47.070Z,10.60
2023-05-14T23:16:15.111Z,10.50
2023-05-14T23:18:43.267Z,10.40
2023-05-14T23:21:12.159Z,10.50
2023-05-14T23:23:39.982Z,10.40
2023-05-14T23:26:07.955Z,10.30
2023-05-14T23:28:35.850Z,10.20
2023-05-14T23:31:05.097Z,10.20
2023-05-14T23:33:32.972Z,10.40
2023-05-14T23:36:00.978Z,10.20
2023-05-14T23:38:28.924Z,10.00
2023-05-14T23:40:56.764Z,10.10
2023-05-14T23:43:24.608Z,10.60
2023-05-14T23:45:52.526Z,10.00
2023-05-14T23:48:21.754Z,10.10
2023-05-14T23:50:49.619Z,9.90
2023-05-14T23:53:17.468Z,9.70
2023-05-14T23:55:45.408Z,9.70
2023-05-14T23:58:13.323Z,9.70
